Terminal Aerodrome Forecast
Issued by NWS

Home | Current Version | Previous Version | Graphics & Text | Print | Product List | Glossary Off
Versions: 1 2 3 4 5 6 7 8 9 10 11 12 13 14 15 16 17 18 19 20 21 22 23 24 25 26 27 28 29 30 31 32 33 34 35 36 37 38 39 40 41 42 43 44 45 46 47 48 49 50

000
FTUS43 KDDC 211413 AAB
TAFHYS
TAF AMD
KHYS 211413Z 2114/2212 36010KT 1/2SM -RA FG OVC003
      TEMPO 2114/2115 1/4SM FG VV002
     FM211900 02012KT 1SM BR OVC003
     FM212200 34013G20KT 2SM -RA BR OVC003
     FM220000 32015G25KT 2SM -SN BLSN OVC003
     FM220700 33025G35KT 1SM -SN BLSN OVC003
     FM221100 33025G35KT 1 1/2SM BLSN OVC015=

USA.gov is the U.S. government's official web portal to all federal, state and local government web resources and services.